Time;durP1;ratioP1;P1;durP2;ratioP2;P2;SDS_P1;SDS_P2;PMS_P1;PMS_P2;Temp;Humidity;BMP_temperature;BMP_pressure;BME280_temperature;BME280_humidity;BME280_pressure;Samples;Min_cycle;Max_cycle;Signal;HPM_P1;HPM_P2
2021/10/29 00:01:22;;;;;;;15.15;11.30;;;;;;;13.07;64.54;100459.62;1723103;82;20977;-37
2021/10/29 00:03:50;;;;;;;19.02;11.38;;;;;;;13.10;64.50;100460.87;1726887;82;21610;-37
2021/10/29 00:06:17;;;;;;;19.98;12.40;;;;;;;13.13;64.47;100457.48;1720112;82;21107;-37
2021/10/29 00:08:44;;;;;;;19.10;11.12;;;;;;;13.15;64.48;100461.22;1733153;82;21087;-37
2021/10/29 00:11:10;;;;;;;19.60;12.05;;;;;;;13.15;64.51;100457.93;1732625;82;21596;-37
2021/10/29 00:13:37;;;;;;;19.17;13.00;;;;;;;13.14;64.52;100457.70;1732010;82;21008;-37
2021/10/29 00:16:04;;;;;;;17.75;12.63;;;;;;;13.13;64.50;100457.48;1725808;82;21595;-37
2021/10/29 00:18:31;;;;;;;17.35;13.00;;;;;;;12.82;64.49;100413.30;1728465;82;21080;-37
2021/10/29 00:20:58;;;;;;;19.60;12.58;;;;;;;13.05;64.57;100462.48;1728014;82;21771;-37
2021/10/29 00:23:25;;;;;;;15.40;10.88;;;;;;;13.00;64.68;100457.30;1731442;82;20939;-37
2021/10/29 00:25:51;;;;;;;17.30;11.45;;;;;;;13.01;64.82;100461.61;1722286;82;21020;-37
2021/10/29 00:28:18;;;;;;;16.32;11.80;;;;;;;13.02;64.77;100462.60;1724986;83;21641;-37
2021/10/29 00:30:45;;;;;;;19.25;12.23;;;;;;;13.00;64.79;100461.38;1720394;83;21060;-37
2021/10/29 00:33:11;;;;;;;18.62;12.20;;;;;;;12.99;64.87;100463.31;1720225;82;21131;-37
2021/10/29 00:35:38;;;;;;;19.02;13.18;;;;;;;12.98;64.91;100464.45;1724828;82;21032;-37
2021/10/29 00:38:05;;;;;;;16.70;11.55;;;;;;;12.99;64.92;100459.80;1717726;83;20998;-37
2021/10/29 00:40:32;;;;;;;18.60;10.88;;;;;;;12.99;64.88;100461.16;1717344;83;21029;-37
2021/10/29 00:42:58;;;;;;;16.52;10.55;;;;;;;13.00;64.90;100457.30;1699503;82;21612;-38
2021/10/29 00:45:25;;;;;;;16.55;11.70;;;;;;;13.03;64.83;100459.31;1715505;82;21133;-37
2021/10/29 00:47:53;;;;;;;17.25;11.68;;;;;;;13.07;64.77;100462.92;1718342;83;21027;-37
2021/10/29 00:50:20;;;;;;;17.90;11.65;;;;;;;13.08;64.73;100457.13;1718997;82;21279;-37
2021/10/29 00:52:48;;;;;;;17.52;12.33;;;;;;;13.07;64.73;100452.03;1686934;85;21427;-38
2021/10/29 00:55:15;;;;;;;17.25;11.97;;;;;;;13.08;64.72;100458.50;1717080;82;21106;-37
2021/10/29 00:57:41;;;;;;;17.50;12.07;;;;;;;13.08;64.66;100455.77;1708278;82;21250;-37
2021/10/29 01:00:11;;;;;;;16.37;11.75;;;;;;;13.06;64.65;100451.27;1702590;83;21005;-37
2021/10/29 01:02:39;;;;;;;16.00;11.50;;;;;;;13.08;64.58;100452.25;1713555;82;21060;-37
2021/10/29 01:05:07;;;;;;;14.75;11.45;;;;;;;13.11;64.53;100457.05;1727479;82;21520;-37
2021/10/29 01:07:34;;;;;;;16.82;11.68;;;;;;;13.13;64.52;100454.75;1713275;82;21058;-37
2021/10/29 01:10:01;;;;;;;17.67;12.73;;;;;;;13.13;64.55;100456.11;1711664;83;21708;-37
2021/10/29 01:12:27;;;;;;;18.15;12.68;;;;;;;13.13;64.59;100458.04;1722148;82;20978;-37
2021/10/29 01:14:55;;;;;;;18.17;12.85;;;;;;;13.10;64.54;100455.43;1695397;82;21064;-37
2021/10/29 01:17:22;;;;;;;18.42;12.30;;;;;;;13.08;64.59;100453.62;1704814;83;21030;-37
2021/10/29 01:19:51;;;;;;;22.05;13.15;;;;;;;13.06;64.61;100458.64;1707468;82;21033;-37
2021/10/29 01:22:18;;;;;;;15.43;12.53;;;;;;;13.03;64.62;100457.95;1684913;85;21112;-37
2021/10/29 01:24:44;;;;;;;20.85;12.10;;;;;;;12.99;64.71;100456.51;1704522;83;21030;-37
2021/10/29 01:27:12;;;;;;;18.25;13.08;;;;;;;12.98;64.74;100449.47;1708774;82;21381;-37
2021/10/29 01:29:39;;;;;;;16.07;12.05;;;;;;;12.98;64.65;100452.77;1698654;82;21071;-37
2021/10/29 01:32:09;;;;;;;18.70;11.85;;;;;;;12.99;64.64;100447.55;1687917;83;21048;-37
2021/10/29 01:34:37;;;;;;;15.23;11.80;;;;;;;12.97;64.67;100455.28;1712938;83;24650;-38
2021/10/29 01:37:10;;;;;;;15.55;11.33;;;;;;;12.96;64.72;100453.70;1712879;82;21057;-37
2021/10/29 01:39:37;;;;;;;15.00;11.40;;;;;;;12.91;64.83;100455.31;1709362;82;21084;-37
2021/10/29 01:42:05;;;;;;;17.12;11.05;;;;;;;12.86;64.79;100450.12;1733363;82;20998;-38
2021/10/29 01:44:32;;;;;;;16.37;11.38;;;;;;;12.84;64.81;100459.19;1735977;82;21005;-37
2021/10/29 01:46:59;;;;;;;16.35;10.72;;;;;;;12.83;64.81;100458.39;1727607;82;21143;-37
2021/10/29 01:49:26;;;;;;;17.73;10.63;;;;;;;12.84;64.87;100453.75;1725243;82;20941;-37
2021/10/29 01:51:53;;;;;;;16.00;11.55;;;;;;;12.83;64.84;100456.27;1718487;82;21369;-37
2021/10/29 01:54:20;;;;;;;17.40;11.80;;;;;;;12.82;64.82;100450.59;1719034;83;21090;-37
2021/10/29 01:56:47;;;;;;;16.62;10.88;;;;;;;12.81;64.83;100453.09;1723139;82;21502;-37
2021/10/29 01:59:14;;;;;;;16.52;11.22;;;;;;;12.79;64.86;100449.91;1722525;82;21136;-37
2021/10/29 02:01:41;;;;;;;15.13;10.18;;;;;;;12.77;64.91;100448.92;1720267;83;20973;-38
2021/10/29 02:04:07;;;;;;;15.03;10.18;;;;;;;12.77;64.89;100451.64;1707715;83;20997;-37
2021/10/29 02:06:34;;;;;;;15.98;10.50;;;;;;;12.78;64.83;100451.08;1704775;82;21092;-37
2021/10/29 02:09:01;;;;;;;14.80;9.65;;;;;;;12.80;64.79;100452.86;1737694;82;21068;-37
2021/10/29 02:11:27;;;;;;;15.80;10.98;;;;;;;12.80;64.87;100452.86;1737972;82;21141;-37
2021/10/29 02:13:54;;;;;;;14.10;10.55;;;;;;;12.79;64.86;100452.06;1738789;82;21009;-37
2021/10/29 02:16:20;;;;;;;13.70;10.23;;;;;;;12.77;64.77;100452.20;1738646;82;21796;-37
2021/10/29 02:18:47;;;;;;;13.08;9.98;;;;;;;12.75;64.86;100448.46;1738624;82;21065;-37
2021/10/29 02:21:14;;;;;;;16.40;10.38;;;;;;;12.74;64.86;100458.32;1738809;82;21487;-37
2021/10/29 02:23:40;;;;;;;12.45;10.63;;;;;;;12.71;64.95;100465.27;1738362;82;21142;-37
2021/10/29 02:26:07;;;;;;;13.13;9.48;;;;;;;12.69;64.93;100464.02;1733849;82;20926;-37
2021/10/29 02:28:34;;;;;;;16.73;9.88;;;;;;;12.69;64.82;100474.89;1738288;82;21033;-37
2021/10/29 02:31:00;;;;;;;14.98;9.85;;;;;;;12.69;64.89;100472.17;1737787;82;21005;-37
2021/10/29 02:33:27;;;;;;;14.73;10.10;;;;;;;12.68;64.98;100471.98;1738702;82;21513;-37
2021/10/29 02:35:53;;;;;;;12.93;9.68;;;;;;;12.66;65.05;100468.80;1738416;82;21145;-37
2021/10/29 02:38:19;;;;;;;15.70;11.28;;;;;;;12.64;65.11;100470.49;1738858;82;20982;-37
2021/10/29 02:40:46;;;;;;;15.63;11.05;;;;;;;12.61;65.16;100471.20;1738337;82;21617;-37
2021/10/29 02:43:13;;;;;;;17.30;11.10;;;;;;;12.58;65.21;100473.26;1738897;82;21013;-37
2021/10/29 02:45:39;;;;;;;15.28;10.53;;;;;;;12.57;65.21;100474.39;1733431;82;21068;-37
2021/10/29 02:48:06;;;;;;;14.18;10.28;;;;;;;12.56;65.26;100472.23;1716305;82;21128;-37
2021/10/29 02:50:32;;;;;;;15.63;10.63;;;;;;;12.57;65.28;100476.55;1708648;82;22126;-37
2021/10/29 02:52:59;;;;;;;17.15;11.68;;;;;;;12.60;65.21;100477.77;1716637;82;21032;-37
2021/10/29 02:55:26;;;;;;;19.32;13.00;;;;;;;12.59;65.33;100476.97;1721263;82;21046;-37
2021/10/29 02:57:53;;;;;;;19.70;13.35;;;;;;;12.60;65.35;100477.77;1695414;82;21088;-37
2021/10/29 03:00:19;;;;;;;20.02;13.28;;;;;;;12.56;65.41;100480.39;1679137;85;21143;-37
2021/10/29 03:02:46;;;;;;;17.25;10.85;;;;;;;12.55;65.50;100486.17;1678818;85;21053;-37
2021/10/29 03:05:13;;;;;;;14.73;10.53;;;;;;;12.53;65.44;100482.45;1723257;82;21010;-38
2021/10/29 03:07:40;;;;;;;17.05;10.72;;;;;;;12.52;65.30;100484.16;1733086;82;21033;-38
2021/10/29 03:10:10;;;;;;;18.00;12.00;;;;;;;12.53;65.25;100489.25;1732813;82;21013;-37
2021/10/29 03:12:37;;;;;;;18.85;13.10;;;;;;;12.51;65.33;100490.16;1733497;82;21642;-37
2021/10/29 03:15:06;;;;;;;18.10;12.30;;;;;;;12.47;65.52;100487.11;1733213;82;21013;-37
2021/10/29 03:17:34;;;;;;;17.35;12.20;;;;;;;12.45;65.62;100488.80;1733550;82;21472;-37
2021/10/29 03:20:01;;;;;;;15.98;11.40;;;;;;;12.45;65.63;100487.45;1724607;82;21086;-37
2021/10/29 03:22:27;;;;;;;14.58;12.50;;;;;;;12.45;65.64;100486.09;1712067;83;21050;-37
2021/10/29 03:24:54;;;;;;;18.05;11.55;;;;;;;12.44;65.64;100485.86;1729027;82;21460;-37
2021/10/29 03:27:20;;;;;;;17.50;11.60;;;;;;;12.45;65.64;100490.16;1721372;82;21295;-38
2021/10/29 03:29:47;;;;;;;14.73;11.65;;;;;;;12.50;65.57;100485.84;1711445;83;21047;-37
2021/10/29 03:32:14;;;;;;;18.10;12.50;;;;;;;12.53;65.48;100482.45;1712240;83;21079;-37
2021/10/29 03:34:40;;;;;;;18.67;12.90;;;;;;;12.53;65.49;100485.17;1711681;83;21054;-37
2021/10/29 03:37:22;;;;;;;15.68;11.57;;;;;;;12.54;65.38;100479.14;1711878;83;21154;-37
2021/10/29 03:39:46;;;;;;;17.00;12.25;;;;;;;12.53;65.34;100487.90;1711456;83;20983;-37
2021/10/29 03:42:14;;;;;;;21.10;14.47;;;;;;;12.49;65.36;100484.26;1706758;83;21015;-37
2021/10/29 03:47:01;;;;;;;20.77;14.25;;;;;;;12.43;65.50;100481.58;1712099;83;21560;-37
2021/10/29 03:49:33;;;;;;;22.20;12.68;;;;;;;12.48;65.59;100490.86;1712133;83;21205;-37
2021/10/29 03:52:04;;;;;;;19.85;14.47;;;;;;;12.50;65.62;100498.09;1711334;83;21018;-37
2021/10/29 03:54:32;;;;;;;20.35;13.55;;;;;;;12.50;65.54;100496.73;1711636;83;21041;-37
2021/10/29 03:57:24;;;;;;;19.73;13.32;;;;;;;12.51;65.52;100498.31;1731524;82;21079;-37
2021/10/29 03:59:25;;;;;;;18.00;13.78;;;;;;;12.48;65.44;100500.38;1727199;82;21332;-37
2021/10/29 04:01:51;;;;;;;20.68;13.50;;;;;;;12.40;65.64;100501.28;1733148;82;21533;-37
2021/10/29 04:04:18;;;;;;;19.23;13.48;;;;;;;12.37;65.72;100495.75;1732997;82;21515;-37
2021/10/29 04:06:46;;;;;;;17.73;12.78;;;;;;;12.40;65.72;100501.28;1733209;82;21021;-37
2021/10/29 04:09:14;;;;;;;17.90;12.30;;;;;;;12.45;65.70;100501.05;1733337;82;21526;-37
2021/10/29 04:11:41;;;;;;;16.50;12.70;;;;;;;12.48;65.59;100503.09;1733295;82;21021;-37
2021/10/29 04:14:16;;;;;;;17.85;12.85;;;;;;;12.49;65.60;100498.45;1733407;82;21139;-37
2021/10/29 04:16:39;;;;;;;19.15;14.03;;;;;;;12.50;65.54;100496.73;1731841;82;21587;-37
2021/10/29 04:19:08;;;;;;;19.00;14.50;;;;;;;12.49;65.52;100498.45;1733416;82;20942;-37
2021/10/29 04:21:37;;;;;;;21.25;14.50;;;;;;;12.45;65.57;100498.33;1733534;82;21049;-37
2021/10/29 04:24:05;;;;;;;18.10;12.28;;;;;;;12.44;65.58;100501.41;1733041;82;20993;-37
2021/10/29 04:26:32;;;;;;;15.98;12.18;;;;;;;12.46;65.57;100501.84;1733428;82;21127;-37
2021/10/29 04:29:01;;;;;;;18.07;13.55;;;;;;;12.50;65.48;100513.05;1733523;82;21073;-37
2021/10/29 04:31:30;;;;;;;20.65;14.03;;;;;;;12.53;65.37;100511.02;1733479;82;21619;-37
2021/10/29 04:33:57;;;;;;;18.85;14.15;;;;;;;12.51;65.38;100511.92;1733444;82;21076;-37
2021/10/29 04:36:24;;;;;;;18.23;14.13;;;;;;;12.51;65.39;100513.27;1733537;82;21025;-37
2021/10/29 04:38:51;;;;;;;19.25;14.53;;;;;;;12.51;65.34;100519.28;1733382;82;21830;-37
2021/10/29 04:41:17;;;;;;;20.12;14.30;;;;;;;12.47;65.40;100523.27;1733144;82;21057;-37
2021/10/29 04:43:44;;;;;;;18.60;13.88;;;;;;;12.41;65.38;100523.83;1733297;82;21061;-37
2021/10/29 04:46:10;;;;;;;17.57;12.15;;;;;;;12.38;65.47;100523.17;1733394;82;21050;-37
2021/10/29 04:48:37;;;;;;;17.70;13.08;;;;;;;12.38;65.57;100524.53;1733435;82;21041;-37
2021/10/29 04:51:04;;;;;;;20.35;14.83;;;;;;;12.39;65.57;100525.53;1731486;82;21131;-37
2021/10/29 04:53:31;;;;;;;19.05;13.48;;;;;;;12.35;65.75;100528.71;1731098;82;21017;-37
2021/10/29 04:55:58;;;;;;;19.87;13.72;;;;;;;12.35;65.77;100530.64;1718078;83;20970;-37
2021/10/29 04:58:24;;;;;;;18.90;13.03;;;;;;;12.34;65.83;100531.23;1718985;83;21093;-37
2021/10/29 05:00:51;;;;;;;19.48;13.83;;;;;;;12.35;65.73;100530.64;1718845;83;21018;-37
2021/10/29 05:03:18;;;;;;;21.62;14.90;;;;;;;12.34;65.75;100530.44;1718475;83;21097;-37
2021/10/29 05:05:45;;;;;;;22.00;14.33;;;;;;;12.35;65.68;100535.51;1718344;82;21073;-37
2021/10/29 05:08:12;;;;;;;19.15;14.33;;;;;;;12.37;65.72;100533.81;1718237;83;22187;-37
2021/10/29 05:10:39;;;;;;;21.37;14.58;;;;;;;12.41;65.74;100534.15;1718587;83;20977;-37
2021/10/29 05:13:05;;;;;;;17.82;13.50;;;;;;;12.42;65.76;100533.58;1719251;83;21061;-38
2021/10/29 05:15:34;;;;;;;17.48;13.40;;;;;;;12.42;65.77;100534.38;1719152;83;20966;-37
2021/10/29 05:18:01;;;;;;;23.18;14.13;;;;;;;12.40;65.83;100538.00;1718703;83;21017;-37
2021/10/29 05:20:28;;;;;;;20.15;14.47;;;;;;;12.39;65.77;100539.13;1719071;83;21035;-37
2021/10/29 05:22:55;;;;;;;23.60;14.10;;;;;;;12.38;65.82;100538.92;1718918;83;21103;-37
2021/10/29 05:25:21;;;;;;;20.68;13.80;;;;;;;12.41;65.83;100543.66;1713559;83;21037;-38
2021/10/29 05:27:48;;;;;;;16.23;13.25;;;;;;;12.47;65.70;100546.38;1718450;83;21133;-37
2021/10/29 05:30:15;;;;;;;19.15;13.78;;;;;;;12.52;65.73;100552.95;1715424;82;21006;-37
2021/10/29 05:32:42;;;;;;;18.60;14.15;;;;;;;12.51;65.86;100550.00;1688378;85;21512;-37
2021/10/29 05:35:10;;;;;;;25.02;15.72;;;;;;;12.51;65.81;100549.20;1687990;85;21034;-37
2021/10/29 05:37:38;;;;;;;25.57;17.70;;;;;;;12.52;65.73;100557.59;1698744;82;21523;-37
2021/10/29 05:40:06;;;;;;;24.90;16.95;;;;;;;12.51;65.74;100561.44;1718766;82;21136;-37
2021/10/29 05:42:34;;;;;;;26.02;17.05;;;;;;;12.50;65.82;100559.85;1708321;82;20942;-37
2021/10/29 05:45:01;;;;;;;22.50;16.07;;;;;;;12.54;65.77;100559.38;1726691;82;21032;-37
2021/10/29 05:47:29;;;;;;;21.45;16.05;;;;;;;12.61;65.84;100565.84;1712015;83;21022;-37
2021/10/29 05:49:56;;;;;;;22.05;15.63;;;;;;;12.68;65.74;100569.92;1711072;82;21791;-38
2021/10/29 05:52:24;;;;;;;20.55;15.30;;;;;;;12.72;65.79;100564.02;1712998;83;21131;-37
2021/10/29 05:57:24;;;;;;;22.35;15.83;;;;;;;12.78;65.64;100569.45;1713016;83;20145;-37
2021/10/29 05:59:52;;;;;;;24.40;16.70;;;;;;;12.71;65.85;100571.95;1714219;82;21543;-37
2021/10/29 06:02:20;;;;;;;23.07;16.25;;;;;;;12.75;65.80;100575.56;1713675;82;21037;-37
2021/10/29 06:04:47;;;;;;;23.92;16.30;;;;;;;12.76;65.70;100572.50;1711360;82;21116;-37
2021/10/29 06:07:14;;;;;;;22.02;15.80;;;;;;;12.80;65.65;100572.59;1706435;83;20984;-37
2021/10/29 06:09:41;;;;;;;21.07;15.85;;;;;;;12.87;65.61;100574.97;1707977;83;20942;-38
2021/10/29 06:12:11;;;;;;;23.87;16.77;;;;;;;12.95;65.46;100574.59;1721444;82;20954;-37
2021/10/29 06:14:39;;;;;;;20.55;15.60;;;;;;;12.98;65.27;100574.69;1702772;82;21044;-37
2021/10/29 06:17:12;;;;;;;23.70;16.05;;;;;;;13.00;65.28;100574.35;1708143;82;21568;-37
2021/10/29 06:19:35;;;;;;;21.80;16.17;;;;;;;13.02;65.26;100578.90;1711486;83;21639;-37
2021/10/29 06:24:33;;;;;;;24.65;16.48;;;;;;;13.08;65.48;100581.58;1711768;83;21897;-37
2021/10/29 06:27:05;;;;;;;19.67;14.25;;;;;;;13.13;65.53;100582.72;1712094;83;21059;-37
2021/10/29 06:29:29;;;;;;;19.77;13.38;;;;;;;13.19;65.44;100584.06;1711762;83;21246;-37
2021/10/29 06:31:55;;;;;;;23.77;14.38;;;;;;;13.29;65.23;100586.30;1712019;83;21090;-37
2021/10/29 06:34:22;;;;;;;21.55;14.35;;;;;;;13.36;65.17;100585.70;1707649;83;21246;-37
2021/10/29 06:36:49;;;;;;;19.12;14.18;;;;;;;13.39;65.02;100589.87;1685052;83;21054;-37
2021/10/29 06:39:19;;;;;;;20.55;13.98;;;;;;;13.39;64.97;100589.87;1713457;82;21810;-38
2021/10/29 06:41:46;;;;;;;19.57;13.87;;;;;;;13.43;64.80;100598.94;1708842;83;21160;-37
2021/10/29 06:44:25;;;;;;;20.88;14.47;;;;;;;13.45;64.88;100598.59;1715198;82;20965;-37
2021/10/29 06:47:00;;;;;;;19.50;13.75;;;;;;;13.46;65.00;100596.86;1690463;83;21031;-37
2021/10/29 06:52:16;;;;;;;19.73;13.38;;;;;;;13.61;64.87;100603.48;1707607;82;21610;-37
2021/10/29 07:00:00;;;;;;;20.52;13.60;;;;;;;13.89;64.39;100612.39;1713525;83;21362;-37
2021/10/29 07:39:57;;;;;;;20.00;12.82;;;;;;;13.98;64.29;100613.61;1605350;84;21072;-37
2021/10/29 07:40:19;;;;;;;18.73;13.75;;;;;;;14.57;62.71;100623.02;1713481;83;21028;-37
2021/10/29 07:42:54;;;;;;;18.80;14.38;;;;;;;14.60;62.42;100623.70;1713414;83;21010;-38
2021/10/29 07:45:18;;;;;;;19.98;14.80;;;;;;;14.65;62.32;100624.79;1714525;82;21077;-38
2021/10/29 07:47:46;;;;;;;20.85;14.40;;;;;;;14.68;62.27;100623.27;1721120;83;21039;-37
2021/10/29 07:50:15;;;;;;;33.35;16.37;;;;;;;14.71;62.32;100629.40;1721217;83;21008;-37
2021/10/29 07:52:43;;;;;;;23.80;15.23;;;;;;;14.75;62.25;100631.63;1721294;83;20927;-37
2021/10/29 07:55:11;;;;;;;22.42;14.18;;;;;;;14.76;62.11;100627.77;1716395;83;20988;-37
2021/10/29 07:57:42;;;;;;;22.95;14.38;;;;;;;14.77;62.02;100630.11;1715568;82;21021;-38
2021/10/29 08:00:10;;;;;;;20.12;14.38;;;;;;;14.76;61.93;100629.12;1718082;82;21094;-38
2021/10/29 08:02:36;;;;;;;19.48;14.25;;;;;;;14.75;62.17;100627.53;1690793;84;21046;-38
2021/10/29 08:05:05;;;;;;;17.98;13.18;;;;;;;14.78;62.21;100624.08;1690750;84;21095;-37
2021/10/29 08:07:31;;;;;;;19.90;12.55;;;;;;;14.91;62.12;100631.59;1690900;84;20955;-37
2021/10/29 08:10:01;;;;;;;36.28;15.83;;;;;;;15.03;61.82;100628.72;1690856;84;21002;-38
2021/10/29 08:12:27;;;;;;;24.30;14.63;;;;;;;15.12;61.21;100630.09;1690932;84;21146;-38
2021/10/29 08:14:56;;;;;;;21.48;14.58;;;;;;;15.12;61.09;100630.09;1690448;84;21085;-38
2021/10/29 08:17:24;;;;;;;23.30;13.72;;;;;;;15.14;61.02;100636.00;1690718;84;21100;-38
2021/10/29 08:19:52;;;;;;;21.93;14.95;;;;;;;15.17;60.80;100629.02;1690570;84;21094;-38
2021/10/29 08:22:19;;;;;;;18.50;14.50;;;;;;;15.19;60.72;100641.17;1690746;84;21031;-37
2021/10/29 08:24:45;;;;;;;20.37;15.60;;;;;;;15.21;60.77;100638.86;1691159;84;21105;-38
2021/10/29 08:27:12;;;;;;;20.25;15.00;;;;;;;15.23;60.48;100640.67;1690684;84;20982;-38
2021/10/29 08:29:39;;;;;;;29.60;15.20;;;;;;;15.30;60.75;100643.34;1690676;84;21111;-38
2021/10/29 08:32:08;;;;;;;19.37;14.35;;;;;;;15.39;60.42;100641.17;1690835;84;20994;-38
2021/10/29 08:34:35;;;;;;;18.00;12.82;;;;;;;15.51;60.23;100639.09;1690998;84;21103;-38
2021/10/29 08:37:05;;;;;;;19.73;13.98;;;;;;;15.60;59.37;100643.77;1690830;84;22052;-37
2021/10/29 08:39:33;;;;;;;21.20;13.18;;;;;;;15.61;58.96;100640.45;1691219;84;21513;-38
2021/10/29 08:42:00;;;;;;;20.43;13.72;;;;;;;15.61;59.04;100648.66;1690882;84;20955;-37
2021/10/29 08:44:27;;;;;;;18.57;13.90;;;;;;;15.71;58.61;100645.33;1691141;84;21641;-38
2021/10/29 08:46:54;;;;;;;22.37;14.28;;;;;;;15.79;58.45;100642.94;1690856;84;21027;-38
2021/10/29 08:49:21;;;;;;;21.35;14.20;;;;;;;15.88;58.16;100646.22;1690682;84;21561;-38
2021/10/29 08:51:49;;;;;;;18.98;13.95;;;;;;;15.95;58.17;100642.26;1690508;84;21616;-38
2021/10/29 08:54:16;;;;;;;36.28;15.25;;;;;;;16.04;58.12;100645.54;1704387;83;20937;-38
2021/10/29 08:56:43;;;;;;;21.40;14.10;;;;;;;16.19;57.96;100643.83;1718554;83;21015;-38
2021/10/29 09:01:09;;;;;;;17.12;12.98;;;;;;;16.51;57.39;100633.37;1770977;79;22671;-38
2021/10/29 09:03:43;;;;;;;22.20;15.25;;;;;;;16.55;56.09;100635.62;1732213;82;20967;-38
2021/10/29 09:06:54;;;;;;;19.32;12.37;;;;;;;16.57;55.67;100638.77;1731195;82;21102;-38
2021/10/29 09:09:04;;;;;;;14.15;11.22;;;;;;;16.47;55.34;100638.02;1715464;82;21541;-38
2021/10/29 09:31:24;;;;;;;17.35;12.35;;;;;;;16.13;55.38;100632.18;1732583;82;21018;-38
2021/10/29 09:31:27;;;;;;;14.60;8.18;;;;;;;16.23;55.70;100633.73;1732689;82;21087;-38
2021/10/29 09:34:05;;;;;;;6.05;5.05;;;;;;;16.25;54.44;100633.37;1732528;82;21898;-38
2021/10/29 09:36:45;;;;;;;6.53;5.20;;;;;;;16.24;52.16;100633.95;1732353;82;20937;-38
2021/10/29 09:39:18;;;;;;;7.92;6.10;;;;;;;16.23;51.47;100630.20;1732664;82;21031;-38
2021/10/29 09:42:09;;;;;;;12.65;6.62;;;;;;;16.19;51.80;100629.36;1731732;82;21529;-38
2021/10/29 09:44:53;;;;;;;11.15;7.37;;;;;;;16.18;51.81;100629.14;1732655;82;21557;-38
2021/10/29 09:47:21;;;;;;;9.85;7.37;;;;;;;16.16;52.54;100632.84;1732731;82;21177;-38
2021/10/29 09:49:52;;;;;;;11.28;7.85;;;;;;;16.13;52.88;100634.92;1777415;80;21500;-38
2021/10/29 09:57:24;;;;;;;4.70;3.83;;;;;;;16.09;52.87;100639.77;1774754;80;20922;-38
2021/10/29 09:59:55;;;;;;;5.37;3.30;;;;;;;16.06;50.88;100634.24;1773435;80;21200;-38
2021/10/29 10:02:23;;;;;;;6.28;4.00;;;;;;;16.04;50.44;100637.33;1772123;80;21503;-38
2021/10/29 10:04:51;;;;;;;8.25;5.20;;;;;;;16.04;50.14;100635.17;1774363;80;21503;-38
2021/10/29 10:07:24;;;;;;;9.45;5.90;;;;;;;16.02;50.54;100635.52;1774383;80;21009;-38
2021/10/29 10:10:00;;;;;;;9.45;5.78;;;;;;;16.02;51.06;100632.03;1774411;80;21535;-38
2021/10/29 10:12:34;;;;;;;9.03;6.62;;;;;;;16.01;51.26;100631.80;1773852;80;21961;-38
2021/10/29 10:15:02;;;;;;;10.60;5.75;;;;;;;16.00;51.49;100632.38;1772438;80;21716;-38
2021/10/29 10:17:29;;;;;;;11.80;6.33;;;;;;;16.00;50.96;100634.33;1773843;80;21021;-38
2021/10/29 10:19:58;;;;;;;7.45;5.35;;;;;;;15.97;50.95;100636.43;1773409;80;21539;-38
2021/10/29 10:22:27;;;;;;;7.53;4.80;;;;;;;15.94;50.89;100633.83;1773573;80;21073;-38
2021/10/29 10:25:03;;;;;;;10.63;5.78;;;;;;;15.95;51.00;100628.58;1773741;80;21182;-38
2021/10/29 10:28:05;;;;;;;8.98;6.53;;;;;;;15.98;51.01;100625.11;1773093;80;21037;-38
2021/10/29 10:44:47;;;;;;;9.30;6.30;;;;;;;15.87;51.54;100629.63;1746324;80;20982;-38
2021/10/29 10:47:16;;;;;;;8.78;5.97;;;;;;;15.90;51.59;100627.52;1728376;80;21005;-38
2021/10/29 10:49:56;;;;;;;9.00;6.30;;;;;;;15.94;51.72;100628.36;1727265;80;21037;-38
2021/10/29 10:52:25;;;;;;;9.58;6.05;;;;;;;15.99;51.25;100630.80;1773354;80;21120;-38
2021/10/29 10:54:55;;;;;;;6.72;5.03;;;;;;;16.02;51.05;100630.05;1768819;80;21233;-38
2021/10/29 11:00:14;;;;;;;6.92;5.17;;;;;;;16.08;50.96;100629.97;1756639;80;21005;-38
2021/10/29 11:03:29;;;;;;;8.53;5.75;;;;;;;16.12;50.62;100629.26;1768587;80;21093;-38
2021/10/29 11:10:58;;;;;;;6.47;3.92;;;;;;;16.19;49.51;100621.16;1775223;80;21013;-35
2021/10/29 11:13:27;;;;;;;7.25;5.42;;;;;;;16.17;49.92;100622.11;1763898;80;21033;-38
2021/10/29 11:16:01;;;;;;;9.20;5.75;;;;;;;16.19;49.27;100627.42;1763890;80;20987;-38
2021/10/29 11:18:39;;;;;;;9.40;5.58;;;;;;;16.20;48.66;100620.00;1760629;80;21151;-38
2021/10/29 11:21:18;;;;;;;5.95;5.22;;;;;;;16.18;48.77;100622.30;1758082;80;21500;-38
2021/10/29 11:23:52;;;;;;;18.30;6.10;;;;;;;16.20;48.82;100618.63;1763473;80;21045;-38
2021/10/29 11:26:25;;;;;;;8.03;5.22;;;;;;;16.25;48.96;100620.48;1747547;81;20994;-38
2021/10/29 11:28:54;;;;;;;7.42;4.85;;;;;;;16.31;49.13;100615.50;1748943;80;20997;-38
2021/10/29 11:31:31;;;;;;;7.40;4.87;;;;;;;16.38;48.77;100614.22;1762759;80;21552;-38
2021/10/29 11:34:01;;;;;;;11.35;4.62;;;;;;;16.43;48.58;100616.65;1753346;80;21545;-38
2021/10/29 11:36:31;;;;;;;5.92;4.45;;;;;;;16.41;48.58;100613.51;1760704;81;20887;-37
2021/10/29 11:38:59;;;;;;;6.97;4.50;;;;;;;16.43;48.73;100624.86;1752165;80;21012;-38
2021/10/29 11:41:31;;;;;;;6.30;4.62;;;;;;;16.48;48.80;100623.18;1768505;80;21514;-38
2021/10/29 11:44:03;;;;;;;5.67;4.70;;;;;;;16.53;48.37;100622.86;1773796;80;21109;-38
2021/10/29 11:46:31;;;;;;;5.65;4.40;;;;;;;16.55;48.26;100623.30;1772237;80;20941;-38
2021/10/29 11:49:11;;;;;;;5.92;4.65;;;;;;;16.56;48.41;100618.02;1763749;80;21542;-38
2021/10/29 11:51:39;;;;;;;6.05;4.45;;;;;;;16.59;48.49;100620.06;1733944;81;21106;-38
2021/10/29 12:07:23;;;;;;;6.47;4.20;;;;;;;17.17;46.97;100616.92;1743366;81;21084;-38
2021/10/29 12:09:53;;;;;;;5.45;4.50;;;;;;;17.39;46.03;100616.78;1744903;80;21051;-38
2021/10/29 12:12:28;;;;;;;5.10;4.42;;;;;;;17.47;45.84;100613.55;1737395;81;20988;-38
2021/10/29 12:15:06;;;;;;;5.05;4.40;;;;;;;17.46;45.82;100610.60;1750606;81;21101;-38
2021/10/29 12:17:32;;;;;;;7.03;4.60;;;;;;;17.43;45.71;100616.05;1758161;80;20954;-38
2021/10/29 12:20:03;;;;;;;7.15;5.17;;;;;;;17.34;45.80;100613.58;1759684;80;21637;-38
2021/10/29 12:22:53;;;;;;;6.05;4.35;;;;;;;17.25;46.07;100611.14;1767405;80;21113;-38
2021/10/29 12:28:05;;;;;;;21.27;5.35;;;;;;;17.20;46.32;100601.09;1763259;81;21016;-38
2021/10/29 12:30:42;;;;;;;9.88;4.60;;;;;;;17.18;46.34;100600.69;1763980;80;21014;-38
2021/10/29 12:53:46;;;;;;;6.58;4.87;;;;;;;18.55;42.97;100590.22;1790373;80;21524;-38
2021/10/29 13:03:46;;;;;;;6.62;4.60;;;;;;;18.56;43.78;100588.27;1785479;80;21102;-38
2021/10/29 13:06:15;;;;;;;7.60;5.30;;;;;;;18.56;43.23;100587.67;1787273;80;21017;-38
2021/10/29 13:08:45;;;;;;;8.43;5.35;;;;;;;18.52;43.52;100579.98;1752608;80;20975;-39
2021/10/29 13:11:13;;;;;;;5.42;4.53;;;;;;;18.54;43.38;100591.38;1732584;82;21105;-38
2021/10/29 13:13:43;;;;;;;7.28;4.40;;;;;;;18.70;43.01;100580.69;1775506;80;21037;-38
2021/10/29 13:16:11;;;;;;;7.83;4.03;;;;;;;19.05;42.43;100582.23;1789531;79;21180;-38
2021/10/29 13:18:48;;;;;;;4.95;4.45;;;;;;;19.61;41.55;100583.58;1709182;83;21559;-39
2021/10/29 13:37:42;;;;;;;7.17;4.50;;;;;;;22.33;35.87;100581.81;1711744;82;21089;-39
2021/10/29 13:53:53;;;;;;;8.43;5.40;;;;;;;20.62;38.66;100572.97;1776768;79;21046;-39
2021/10/29 14:31:57;;;;;;;7.55;5.45;;;;;;;17.42;43.92;100565.91;1767825;80;21032;-39
2021/10/29 14:34:22;;;;;;;6.10;5.33;;;;;;;17.23;44.29;100571.58;1787887;79;21065;-38
2021/10/29 14:36:53;;;;;;;9.50;5.42;;;;;;;17.00;44.63;100572.27;1787696;79;21141;-38
2021/10/29 14:39:30;;;;;;;8.08;5.15;;;;;;;16.81;45.01;100564.98;1740789;82;21491;-38
2021/10/29 14:42:06;;;;;;;6.47;5.22;;;;;;;16.65;45.36;100561.09;1741661;82;21025;-38
2021/10/29 14:44:36;;;;;;;9.43;5.55;;;;;;;16.51;45.72;100563.58;1740863;82;21049;-38
2021/10/29 14:49:55;;;;;;;9.03;5.30;;;;;;;16.24;46.40;100566.12;1705404;83;21604;-38
2021/10/29 15:03:02;;;;;;;9.00;5.22;;;;;;;15.48;48.49;100562.48;1740639;82;22014;-38